sensor_id;sensor_type;location;lat;lon;timestamp;P1;durP1;ratioP1;P2;durP2;ratioP2
54157;SDS011;40065;49.894;10.358;2023-05-10T00:01:41;15.88;;;10.77;;
54157;SDS011;40065;49.894;10.358;2023-05-10T00:06:42;16.15;;;11.50;;
54157;SDS011;40065;49.894;10.358;2023-05-10T00:11:44;16.10;;;10.75;;
54157;SDS011;40065;49.894;10.358;2023-05-10T00:16:46;15.93;;;11.27;;
54157;SDS011;40065;49.894;10.358;2023-05-10T00:21:48;13.50;;;10.10;;
54157;SDS011;40065;49.894;10.358;2023-05-10T00:26:50;15.75;;;11.23;;
54157;SDS011;40065;49.894;10.358;2023-05-10T00:31:52;13.80;;;9.68;;
54157;SDS011;40065;49.894;10.358;2023-05-10T00:36:53;15.30;;;11.05;;
54157;SDS011;40065;49.894;10.358;2023-05-10T00:41:55;16.58;;;10.90;;
54157;SDS011;40065;49.894;10.358;2023-05-10T00:46:57;16.48;;;11.30;;
54157;SDS011;40065;49.894;10.358;2023-05-10T00:52:00;14.20;;;10.73;;
54157;SDS011;40065;49.894;10.358;2023-05-10T00:57:03;13.60;;;10.30;;
54157;SDS011;40065;49.894;10.358;2023-05-10T01:02:05;14.07;;;10.18;;
54157;SDS011;40065;49.894;10.358;2023-05-10T01:07:07;13.02;;;8.93;;
54157;SDS011;40065;49.894;10.358;2023-05-10T01:12:11;12.07;;;8.52;;
54157;SDS011;40065;49.894;10.358;2023-05-10T01:17:13;13.23;;;8.63;;
54157;SDS011;40065;49.894;10.358;2023-05-10T01:33:01;10.00;;;8.38;;
54157;SDS011;40065;49.894;10.358;2023-05-10T01:38:22;11.95;;;7.90;;
54157;SDS011;40065;49.894;10.358;2023-05-10T01:43:37;8.65;;;5.85;;
54157;SDS011;40065;49.894;10.358;2023-05-10T01:48:51;5.10;;;4.15;;
54157;SDS011;40065;49.894;10.358;2023-05-10T01:53:59;4.68;;;3.50;;
54157;SDS011;40065;49.894;10.358;2023-05-10T01:59:05;4.75;;;3.72;;
54157;SDS011;40065;49.894;10.358;2023-05-10T02:04:10;4.80;;;3.17;;
54157;SDS011;40065;49.894;10.358;2023-05-10T02:09:17;5.43;;;2.70;;
54157;SDS011;40065;49.894;10.358;2023-05-10T02:14:21;3.85;;;2.88;;
54157;SDS011;40065;49.894;10.358;2023-05-10T02:19:26;3.40;;;2.40;;
54157;SDS011;40065;49.894;10.358;2023-05-10T02:24:30;4.15;;;2.70;;
54157;SDS011;40065;49.894;10.358;2023-05-10T02:29:34;3.95;;;2.72;;
54157;SDS011;40065;49.894;10.358;2023-05-10T02:34:37;4.90;;;3.40;;
54157;SDS011;40065;49.894;10.358;2023-05-10T02:39:40;7.78;;;3.08;;
54157;SDS011;40065;49.894;10.358;2023-05-10T02:44:45;3.35;;;2.70;;
54157;SDS011;40065;49.894;10.358;2023-05-10T02:49:50;4.05;;;2.67;;
54157;SDS011;40065;49.894;10.358;2023-05-10T02:54:52;3.13;;;2.50;;
54157;SDS011;40065;49.894;10.358;2023-05-10T02:59:57;4.53;;;2.58;;
54157;SDS011;40065;49.894;10.358;2023-05-10T03:04:59;3.63;;;2.45;;
54157;SDS011;40065;49.894;10.358;2023-05-10T03:10:01;3.85;;;1.95;;
54157;SDS011;40065;49.894;10.358;2023-05-10T03:15:11;2.15;;;1.27;;
54157;SDS011;40065;49.894;10.358;2023-05-10T03:20:25;3.17;;;1.00;;
54157;SDS011;40065;49.894;10.358;2023-05-10T03:25:32;2.85;;;0.70;;
54157;SDS011;40065;49.894;10.358;2023-05-10T03:30:38;1.60;;;0.70;;
54157;SDS011;40065;49.894;10.358;2023-05-10T03:35:41;0.90;;;0.60;;
54157;SDS011;40065;49.894;10.358;2023-05-10T03:40:43;0.90;;;0.70;;
54157;SDS011;40065;49.894;10.358;2023-05-10T03:45:45;0.93;;;0.70;;
54157;SDS011;40065;49.894;10.358;2023-05-10T03:50:47;2.25;;;0.60;;
54157;SDS011;40065;49.894;10.358;2023-05-10T03:55:50;1.00;;;0.60;;
54157;SDS011;40065;49.894;10.358;2023-05-10T04:00:52;1.00;;;0.60;;
54157;SDS011;40065;49.894;10.358;2023-05-10T04:06:00;1.45;;;0.80;;
54157;SDS011;40065;49.894;10.358;2023-05-10T04:16:12;2.17;;;0.95;;
54157;SDS011;40065;49.894;10.358;2023-05-10T04:21:14;1.23;;;0.68;;
54157;SDS011;40065;49.894;10.358;2023-05-10T04:26:16;3.15;;;1.30;;
54157;SDS011;40065;49.894;10.358;2023-05-10T04:31:17;0.98;;;0.80;;
54157;SDS011;40065;49.894;10.358;2023-05-10T04:36:19;2.30;;;0.90;;
54157;SDS011;40065;49.894;10.358;2023-05-10T04:41:21;1.55;;;0.95;;
54157;SDS011;40065;49.894;10.358;2023-05-10T04:46:23;1.25;;;0.90;;
54157;SDS011;40065;49.894;10.358;2023-05-10T04:51:25;1.40;;;0.80;;
54157;SDS011;40065;49.894;10.358;2023-05-10T04:56:26;2.42;;;1.00;;
54157;SDS011;40065;49.894;10.358;2023-05-10T05:01:28;1.80;;;1.13;;
54157;SDS011;40065;49.894;10.358;2023-05-10T05:06:30;1.20;;;1.00;;
54157;SDS011;40065;49.894;10.358;2023-05-10T05:11:32;3.25;;;1.02;;
54157;SDS011;40065;49.894;10.358;2023-05-10T05:16:33;2.03;;;1.17;;
54157;SDS011;40065;49.894;10.358;2023-05-10T05:21:36;2.67;;;1.10;;
54157;SDS011;40065;49.894;10.358;2023-05-10T05:26:38;1.50;;;1.17;;
54157;SDS011;40065;49.894;10.358;2023-05-10T05:31:39;3.97;;;1.25;;
54157;SDS011;40065;49.894;10.358;2023-05-10T05:36:41;2.30;;;1.25;;
54157;SDS011;40065;49.894;10.358;2023-05-10T05:41:43;2.53;;;1.20;;
54157;SDS011;40065;49.894;10.358;2023-05-10T05:46:45;1.95;;;1.23;;
54157;SDS011;40065;49.894;10.358;2023-05-10T05:51:46;1.52;;;0.93;;
54157;SDS011;40065;49.894;10.358;2023-05-10T05:56:50;1.50;;;1.10;;
54157;SDS011;40065;49.894;10.358;2023-05-10T06:01:54;1.27;;;0.88;;
54157;SDS011;40065;49.894;10.358;2023-05-10T06:06:56;1.38;;;0.80;;
54157;SDS011;40065;49.894;10.358;2023-05-10T06:11:58;2.67;;;1.23;;
54157;SDS011;40065;49.894;10.358;2023-05-10T06:17:00;1.30;;;0.80;;
54157;SDS011;40065;49.894;10.358;2023-05-10T06:22:02;1.98;;;1.02;;
54157;SDS011;40065;49.894;10.358;2023-05-10T06:27:04;2.58;;;1.20;;
54157;SDS011;40065;49.894;10.358;2023-05-10T06:32:07;1.98;;;1.00;;
54157;SDS011;40065;49.894;10.358;2023-05-10T06:37:08;1.33;;;0.70;;
54157;SDS011;40065;49.894;10.358;2023-05-10T06:42:10;1.38;;;1.02;;
54157;SDS011;40065;49.894;10.358;2023-05-10T06:47:12;4.38;;;1.30;;
54157;SDS011;40065;49.894;10.358;2023-05-10T06:52:14;9.27;;;1.27;;
54157;SDS011;40065;49.894;10.358;2023-05-10T06:57:16;3.28;;;1.10;;
54157;SDS011;40065;49.894;10.358;2023-05-10T07:02:31;1.80;;;1.30;;
54157;SDS011;40065;49.894;10.358;2023-05-10T07:07:33;3.55;;;1.30;;
54157;SDS011;40065;49.894;10.358;2023-05-10T07:12:35;3.42;;;1.17;;
54157;SDS011;40065;49.894;10.358;2023-05-10T07:17:37;5.45;;;1.33;;
54157;SDS011;40065;49.894;10.358;2023-05-10T07:22:39;1.42;;;1.08;;
54157;SDS011;40065;49.894;10.358;2023-05-10T07:27:41;1.65;;;1.13;;
54157;SDS011;40065;49.894;10.358;2023-05-10T07:32:42;2.10;;;1.35;;
54157;SDS011;40065;49.894;10.358;2023-05-10T07:37:44;2.53;;;1.10;;
54157;SDS011;40065;49.894;10.358;2023-05-10T07:42:46;1.85;;;1.30;;
54157;SDS011;40065;49.894;10.358;2023-05-10T07:47:48;3.80;;;1.27;;
54157;SDS011;40065;49.894;10.358;2023-05-10T07:52:49;6.55;;;1.55;;
54157;SDS011;40065;49.894;10.358;2023-05-10T07:57:51;7.10;;;2.22;;
54157;SDS011;40065;49.894;10.358;2023-05-10T08:02:53;9.07;;;1.70;;
54157;SDS011;40065;49.894;10.358;2023-05-10T08:07:55;3.55;;;1.40;;
54157;SDS011;40065;49.894;10.358;2023-05-10T08:12:57;3.22;;;2.42;;
54157;SDS011;40065;49.894;10.358;2023-05-10T08:17:59;3.85;;;1.90;;
54157;SDS011;40065;49.894;10.358;2023-05-10T08:23:01;4.47;;;2.00;;
54157;SDS011;40065;49.894;10.358;2023-05-10T08:28:03;2.63;;;1.70;;
54157;SDS011;40065;49.894;10.358;2023-05-10T08:33:05;3.17;;;1.80;;
54157;SDS011;40065;49.894;10.358;2023-05-10T08:38:07;10.13;;;2.22;;
54157;SDS011;40065;49.894;10.358;2023-05-10T08:43:10;4.13;;;1.98;;
54157;SDS011;40065;49.894;10.358;2023-05-10T08:53:15;3.67;;;1.50;;
54157;SDS011;40065;49.894;10.358;2023-05-10T08:58:18;3.10;;;1.40;;
54157;SDS011;40065;49.894;10.358;2023-05-10T09:03:20;8.27;;;1.40;;
54157;SDS011;40065;49.894;10.358;2023-05-10T09:08:22;1.90;;;1.30;;
54157;SDS011;40065;49.894;10.358;2023-05-10T09:13:28;8.23;;;1.38;;
54157;SDS011;40065;49.894;10.358;2023-05-10T09:18:31;3.83;;;1.23;;
54157;SDS011;40065;49.894;10.358;2023-05-10T09:23:32;2.80;;;1.00;;
54157;SDS011;40065;49.894;10.358;2023-05-10T09:28:35;3.60;;;1.02;;
54157;SDS011;40065;49.894;10.358;2023-05-10T09:33:58;3.17;;;1.40;;
54157;SDS011;40065;49.894;10.358;2023-05-10T09:39:00;3.58;;;1.08;;
54157;SDS011;40065;49.894;10.358;2023-05-10T09:44:01;9.15;;;1.77;;
54157;SDS011;40065;49.894;10.358;2023-05-10T09:49:03;5.28;;;1.67;;
54157;SDS011;40065;49.894;10.358;2023-05-10T09:54:10;4.17;;;1.40;;
54157;SDS011;40065;49.894;10.358;2023-05-10T09:59:17;3.13;;;1.10;;
54157;SDS011;40065;49.894;10.358;2023-05-10T10:04:19;2.58;;;1.10;;
54157;SDS011;40065;49.894;10.358;2023-05-10T10:09:22;2.58;;;1.02;;
54157;SDS011;40065;49.894;10.358;2023-05-10T10:14:24;2.88;;;1.02;;
54157;SDS011;40065;49.894;10.358;2023-05-10T10:19:27;2.50;;;1.00;;
54157;SDS011;40065;49.894;10.358;2023-05-10T10:24:29;1.85;;;1.10;;
54157;SDS011;40065;49.894;10.358;2023-05-10T10:29:51;3.60;;;1.25;;
54157;SDS011;40065;49.894;10.358;2023-05-10T10:35:02;1.77;;;1.00;;
54157;SDS011;40065;49.894;10.358;2023-05-10T10:40:22;3.70;;;1.00;;
54157;SDS011;40065;49.894;10.358;2023-05-10T10:45:24;4.90;;;1.00;;
54157;SDS011;40065;49.894;10.358;2023-05-10T10:50:27;3.00;;;1.52;;
54157;SDS011;40065;49.894;10.358;2023-05-10T10:55:29;3.13;;;1.35;;
54157;SDS011;40065;49.894;10.358;2023-05-10T11:00:35;2.47;;;0.93;;
54157;SDS011;40065;49.894;10.358;2023-05-10T11:05:39;1.83;;;0.88;;
54157;SDS011;40065;49.894;10.358;2023-05-10T11:16:15;5.63;;;1.70;;
54157;SDS011;40065;49.894;10.358;2023-05-10T11:21:17;3.30;;;1.58;;
54157;SDS011;40065;49.894;10.358;2023-05-10T11:26:19;5.20;;;1.20;;
54157;SDS011;40065;49.894;10.358;2023-05-10T11:31:24;2.65;;;1.20;;
54157;SDS011;40065;49.894;10.358;2023-05-10T11:41:30;4.15;;;1.05;;
54157;SDS011;40065;49.894;10.358;2023-05-10T11:46:32;2.97;;;1.10;;
54157;SDS011;40065;49.894;10.358;2023-05-10T11:51:35;4.20;;;1.02;;
54157;SDS011;40065;49.894;10.358;2023-05-10T11:56:40;6.33;;;1.00;;
54157;SDS011;40065;49.894;10.358;2023-05-10T12:01:42;2.58;;;1.27;;
54157;SDS011;40065;49.894;10.358;2023-05-10T12:06:44;2.67;;;1.40;;
54157;SDS011;40065;49.894;10.358;2023-05-10T12:11:47;5.93;;;1.27;;
54157;SDS011;40065;49.894;10.358;2023-05-10T12:16:49;1.90;;;0.90;;
54157;SDS011;40065;49.894;10.358;2023-05-10T12:21:52;1.35;;;0.80;;
54157;SDS011;40065;49.894;10.358;2023-05-10T12:26:53;4.88;;;0.85;;
54157;SDS011;40065;49.894;10.358;2023-05-10T12:31:56;3.40;;;0.98;;
54157;SDS011;40065;49.894;10.358;2023-05-10T12:36:59;1.40;;;0.70;;
54157;SDS011;40065;49.894;10.358;2023-05-10T12:42:01;14.63;;;1.70;;
54157;SDS011;40065;49.894;10.358;2023-05-10T12:47:03;4.28;;;0.88;;
54157;SDS011;40065;49.894;10.358;2023-05-10T12:52:05;1.60;;;0.90;;
54157;SDS011;40065;49.894;10.358;2023-05-10T12:57:08;3.37;;;1.00;;
54157;SDS011;40065;49.894;10.358;2023-05-10T13:02:10;1.80;;;0.85;;
54157;SDS011;40065;49.894;10.358;2023-05-10T13:07:12;2.65;;;0.88;;
54157;SDS011;40065;49.894;10.358;2023-05-10T13:12:14;3.50;;;1.10;;
54157;SDS011;40065;49.894;10.358;2023-05-10T13:17:16;1.92;;;1.00;;
54157;SDS011;40065;49.894;10.358;2023-05-10T13:22:18;2.70;;;1.67;;
54157;SDS011;40065;49.894;10.358;2023-05-10T13:27:39;2.03;;;0.80;;
54157;SDS011;40065;49.894;10.358;2023-05-10T13:32:41;1.63;;;0.75;;
54157;SDS011;40065;49.894;10.358;2023-05-10T13:37:43;2.10;;;0.60;;
54157;SDS011;40065;49.894;10.358;2023-05-10T13:42:45;2.22;;;0.75;;
54157;SDS011;40065;49.894;10.358;2023-05-10T13:47:47;4.43;;;0.65;;
54157;SDS011;40065;49.894;10.358;2023-05-10T13:52:49;1.75;;;0.70;;
54157;SDS011;40065;49.894;10.358;2023-05-10T13:57:51;1.50;;;0.30;;
54157;SDS011;40065;49.894;10.358;2023-05-10T14:02:53;1.27;;;0.40;;
54157;SDS011;40065;49.894;10.358;2023-05-10T14:07:55;2.20;;;0.40;;
54157;SDS011;40065;49.894;10.358;2023-05-10T14:12:57;0.88;;;0.50;;
54157;SDS011;40065;49.894;10.358;2023-05-10T14:17:58;1.75;;;0.50;;
54157;SDS011;40065;49.894;10.358;2023-05-10T14:23:00;1.25;;;0.52;;
54157;SDS011;40065;49.894;10.358;2023-05-10T14:28:02;5.85;;;0.90;;
54157;SDS011;40065;49.894;10.358;2023-05-10T14:33:04;1.30;;;0.70;;
54157;SDS011;40065;49.894;10.358;2023-05-10T14:38:06;1.80;;;0.70;;
54157;SDS011;40065;49.894;10.358;2023-05-10T14:43:08;2.80;;;0.73;;
54157;SDS011;40065;49.894;10.358;2023-05-10T14:48:10;2.00;;;1.10;;
54157;SDS011;40065;49.894;10.358;2023-05-10T14:53:16;6.38;;;1.20;;
54157;SDS011;40065;49.894;10.358;2023-05-10T14:58:18;2.53;;;0.93;;
54157;SDS011;40065;49.894;10.358;2023-05-10T15:03:20;3.22;;;1.70;;
54157;SDS011;40065;49.894;10.358;2023-05-10T15:08:23;4.30;;;1.27;;
54157;SDS011;40065;49.894;10.358;2023-05-10T15:13:25;6.53;;;1.20;;
54157;SDS011;40065;49.894;10.358;2023-05-10T15:18:27;2.45;;;1.00;;
54157;SDS011;40065;49.894;10.358;2023-05-10T15:23:29;4.82;;;1.30;;
54157;SDS011;40065;49.894;10.358;2023-05-10T15:28:31;7.90;;;1.30;;
54157;SDS011;40065;49.894;10.358;2023-05-10T15:33:35;1.97;;;1.37;;
54157;SDS011;40065;49.894;10.358;2023-05-10T15:38:38;5.60;;;1.30;;
54157;SDS011;40065;49.894;10.358;2023-05-10T15:43:40;2.83;;;1.15;;
54157;SDS011;40065;49.894;10.358;2023-05-10T15:48:41;4.13;;;1.20;;
54157;SDS011;40065;49.894;10.358;2023-05-10T15:53:43;2.65;;;1.50;;
54157;SDS011;40065;49.894;10.358;2023-05-10T15:59:05;2.75;;;1.20;;
54157;SDS011;40065;49.894;10.358;2023-05-10T16:04:08;2.78;;;1.40;;
54157;SDS011;40065;49.894;10.358;2023-05-10T16:09:10;4.32;;;1.42;;
54157;SDS011;40065;49.894;10.358;2023-05-10T16:14:13;2.05;;;0.95;;
54157;SDS011;40065;49.894;10.358;2023-05-10T16:19:14;1.63;;;0.98;;
54157;SDS011;40065;49.894;10.358;2023-05-10T16:24:16;2.92;;;1.25;;
54157;SDS011;40065;49.894;10.358;2023-05-10T16:29:18;6.85;;;1.20;;
54157;SDS011;40065;49.894;10.358;2023-05-10T16:34:20;3.53;;;1.15;;
54157;SDS011;40065;49.894;10.358;2023-05-10T16:44:26;4.22;;;1.20;;
54157;SDS011;40065;49.894;10.358;2023-05-10T16:49:27;4.65;;;1.25;;
54157;SDS011;40065;49.894;10.358;2023-05-10T16:54:29;2.40;;;1.60;;
54157;SDS011;40065;49.894;10.358;2023-05-10T16:59:31;1.95;;;1.30;;
54157;SDS011;40065;49.894;10.358;2023-05-10T17:04:33;3.05;;;1.48;;
54157;SDS011;40065;49.894;10.358;2023-05-10T17:09:35;3.60;;;1.50;;
54157;SDS011;40065;49.894;10.358;2023-05-10T17:14:37;2.30;;;1.30;;
54157;SDS011;40065;49.894;10.358;2023-05-10T17:19:39;2.15;;;1.10;;
54157;SDS011;40065;49.894;10.358;2023-05-10T17:24:40;2.47;;;1.08;;
54157;SDS011;40065;49.894;10.358;2023-05-10T17:29:42;2.28;;;1.55;;
54157;SDS011;40065;49.894;10.358;2023-05-10T17:34:44;2.00;;;1.80;;
54157;SDS011;40065;49.894;10.358;2023-05-10T17:39:46;3.40;;;2.00;;
54157;SDS011;40065;49.894;10.358;2023-05-10T17:44:47;4.68;;;2.00;;
54157;SDS011;40065;49.894;10.358;2023-05-10T17:49:49;4.95;;;1.98;;
54157;SDS011;40065;49.894;10.358;2023-05-10T17:54:51;3.70;;;1.70;;
54157;SDS011;40065;49.894;10.358;2023-05-10T17:59:53;7.13;;;2.33;;
54157;SDS011;40065;49.894;10.358;2023-05-10T18:04:55;3.50;;;2.00;;
54157;SDS011;40065;49.894;10.358;2023-05-10T18:10:00;3.53;;;1.90;;
54157;SDS011;40065;49.894;10.358;2023-05-10T18:15:02;3.35;;;1.90;;
54157;SDS011;40065;49.894;10.358;2023-05-10T18:20:04;1.60;;;1.33;;
54157;SDS011;40065;49.894;10.358;2023-05-10T18:25:07;4.33;;;1.83;;
54157;SDS011;40065;49.894;10.358;2023-05-10T18:30:09;4.03;;;2.30;;
54157;SDS011;40065;49.894;10.358;2023-05-10T18:35:12;2.55;;;1.80;;
54157;SDS011;40065;49.894;10.358;2023-05-10T18:40:15;4.25;;;1.80;;
54157;SDS011;40065;49.894;10.358;2023-05-10T18:45:18;2.60;;;1.73;;
54157;SDS011;40065;49.894;10.358;2023-05-10T18:50:20;4.15;;;2.00;;
54157;SDS011;40065;49.894;10.358;2023-05-10T18:55:25;5.18;;;1.90;;
54157;SDS011;40065;49.894;10.358;2023-05-10T19:00:27;3.20;;;1.60;;
54157;SDS011;40065;49.894;10.358;2023-05-10T19:05:28;3.10;;;2.00;;
54157;SDS011;40065;49.894;10.358;2023-05-10T19:10:31;2.38;;;1.95;;
54157;SDS011;40065;49.894;10.358;2023-05-10T19:15:33;2.92;;;1.80;;
54157;SDS011;40065;49.894;10.358;2023-05-10T19:20:35;4.00;;;1.95;;
54157;SDS011;40065;49.894;10.358;2023-05-10T19:25:39;4.43;;;1.80;;
54157;SDS011;40065;49.894;10.358;2023-05-10T19:30:42;4.50;;;2.17;;
54157;SDS011;40065;49.894;10.358;2023-05-10T19:35:44;2.22;;;1.70;;
54157;SDS011;40065;49.894;10.358;2023-05-10T19:40:46;3.08;;;1.98;;
54157;SDS011;40065;49.894;10.358;2023-05-10T19:45:48;6.00;;;2.50;;
54157;SDS011;40065;49.894;10.358;2023-05-10T19:50:50;5.05;;;2.50;;
54157;SDS011;40065;49.894;10.358;2023-05-10T19:55:53;3.05;;;2.00;;
54157;SDS011;40065;49.894;10.358;2023-05-10T20:00:56;3.28;;;1.85;;
54157;SDS011;40065;49.894;10.358;2023-05-10T20:05:57;3.67;;;2.05;;
54157;SDS011;40065;49.894;10.358;2023-05-10T20:10:59;6.47;;;2.45;;
54157;SDS011;40065;49.894;10.358;2023-05-10T20:21:06;3.65;;;2.60;;
54157;SDS011;40065;49.894;10.358;2023-05-10T20:26:08;4.65;;;2.45;;
54157;SDS011;40065;49.894;10.358;2023-05-10T20:31:10;5.63;;;2.05;;
54157;SDS011;40065;49.894;10.358;2023-05-10T20:36:12;2.17;;;1.73;;
54157;SDS011;40065;49.894;10.358;2023-05-10T20:41:13;5.55;;;2.05;;
54157;SDS011;40065;49.894;10.358;2023-05-10T20:46:15;3.90;;;1.90;;
54157;SDS011;40065;49.894;10.358;2023-05-10T20:51:17;2.88;;;1.83;;
54157;SDS011;40065;49.894;10.358;2023-05-10T20:56:19;6.93;;;2.58;;
54157;SDS011;40065;49.894;10.358;2023-05-10T21:01:21;2.10;;;1.40;;
54157;SDS011;40065;49.894;10.358;2023-05-10T21:06:23;3.03;;;2.38;;
54157;SDS011;40065;49.894;10.358;2023-05-10T21:11:25;3.65;;;2.45;;
54157;SDS011;40065;49.894;10.358;2023-05-10T21:16:27;5.72;;;1.77;;
54157;SDS011;40065;49.894;10.358;2023-05-10T21:21:28;3.60;;;1.88;;
54157;SDS011;40065;49.894;10.358;2023-05-10T21:26:30;4.78;;;2.00;;
54157;SDS011;40065;49.894;10.358;2023-05-10T21:31:32;5.05;;;1.73;;
54157;SDS011;40065;49.894;10.358;2023-05-10T21:36:34;3.42;;;1.77;;
54157;SDS011;40065;49.894;10.358;2023-05-10T21:41:36;2.75;;;1.88;;
54157;SDS011;40065;49.894;10.358;2023-05-10T21:46:38;2.17;;;1.63;;
54157;SDS011;40065;49.894;10.358;2023-05-10T21:51:39;2.50;;;1.48;;
54157;SDS011;40065;49.894;10.358;2023-05-10T21:56:41;3.10;;;2.20;;
54157;SDS011;40065;49.894;10.358;2023-05-10T22:01:43;3.00;;;1.70;;
54157;SDS011;40065;49.894;10.358;2023-05-10T22:06:45;2.25;;;1.52;;
54157;SDS011;40065;49.894;10.358;2023-05-10T22:11:47;2.92;;;1.80;;
54157;SDS011;40065;49.894;10.358;2023-05-10T22:16:48;3.22;;;2.05;;
54157;SDS011;40065;49.894;10.358;2023-05-10T22:21:51;2.72;;;1.60;;
54157;SDS011;40065;49.894;10.358;2023-05-10T22:26:53;2.70;;;1.85;;
54157;SDS011;40065;49.894;10.358;2023-05-10T22:31:56;3.80;;;1.73;;
54157;SDS011;40065;49.894;10.358;2023-05-10T22:36:58;6.53;;;2.00;;
54157;SDS011;40065;49.894;10.358;2023-05-10T22:42:00;4.38;;;1.90;;
54157;SDS011;40065;49.894;10.358;2023-05-10T22:47:02;5.25;;;2.05;;
54157;SDS011;40065;49.894;10.358;2023-05-10T22:52:04;3.50;;;1.63;;
54157;SDS011;40065;49.894;10.358;2023-05-10T22:57:06;2.00;;;1.48;;
54157;SDS011;40065;49.894;10.358;2023-05-10T23:02:08;2.17;;;1.50;;
54157;SDS011;40065;49.894;10.358;2023-05-10T23:07:10;2.63;;;1.70;;
54157;SDS011;40065;49.894;10.358;2023-05-10T23:12:12;2.88;;;1.52;;
54157;SDS011;40065;49.894;10.358;2023-05-10T23:17:14;6.13;;;2.00;;
54157;SDS011;40065;49.894;10.358;2023-05-10T23:22:15;2.83;;;1.63;;
54157;SDS011;40065;49.894;10.358;2023-05-10T23:27:17;3.95;;;2.00;;
54157;SDS011;40065;49.894;10.358;2023-05-10T23:32:19;4.32;;;1.90;;
54157;SDS011;40065;49.894;10.358;2023-05-10T23:37:21;2.78;;;1.77;;
54157;SDS011;40065;49.894;10.358;2023-05-10T23:42:23;2.90;;;1.75;;
54157;SDS011;40065;49.894;10.358;2023-05-10T23:47:24;6.00;;;1.70;;
54157;SDS011;40065;49.894;10.358;2023-05-10T23:52:27;3.13;;;1.67;;
54157;SDS011;40065;49.894;10.358;2023-05-10T23:57:28;5.30;;;1.90;;
